sensor_id;sensor_type;location;lat;lon;timestamp;P1;durP1;ratioP1;P2;durP2;ratioP2
34296;SDS011;20564;42.902;25.336;2022-12-18T00:01:28;4.40;;;2.40;;
34296;SDS011;20564;42.902;25.336;2022-12-18T00:03:57;2.70;;;1.50;;
34296;SDS011;20564;42.902;25.336;2022-12-18T00:06:27;3.97;;;1.85;;
34296;SDS011;20564;42.902;25.336;2022-12-18T00:08:56;3.70;;;1.33;;
34296;SDS011;20564;42.902;25.336;2022-12-18T00:11:25;2.83;;;1.55;;
34296;SDS011;20564;42.902;25.336;2022-12-18T00:13:55;2.28;;;1.40;;
34296;SDS011;20564;42.902;25.336;2022-12-18T00:16:24;2.35;;;0.80;;
34296;SDS011;20564;42.902;25.336;2022-12-18T00:18:54;6.30;;;1.73;;
34296;SDS011;20564;42.902;25.336;2022-12-18T00:21:22;5.47;;;2.65;;
34296;SDS011;20564;42.902;25.336;2022-12-18T00:23:49;4.28;;;2.03;;
34296;SDS011;20564;42.902;25.336;2022-12-18T00:26:17;4.00;;;1.25;;
34296;SDS011;20564;42.902;25.336;2022-12-18T00:28:50;3.53;;;2.15;;
34296;SDS011;20564;42.902;25.336;2022-12-18T00:31:19;4.80;;;1.92;;
34296;SDS011;20564;42.902;25.336;2022-12-18T00:33:48;3.17;;;1.67;;
34296;SDS011;20564;42.902;25.336;2022-12-18T00:36:21;2.65;;;1.30;;
34296;SDS011;20564;42.902;25.336;2022-12-18T00:38:50;2.20;;;1.23;;
34296;SDS011;20564;42.902;25.336;2022-12-18T00:41:18;2.50;;;1.20;;
34296;SDS011;20564;42.902;25.336;2022-12-18T00:44:05;3.30;;;1.83;;
34296;SDS011;20564;42.902;25.336;2022-12-18T00:46:33;4.57;;;1.75;;
34296;SDS011;20564;42.902;25.336;2022-12-18T00:49:00;2.97;;;1.60;;
34296;SDS011;20564;42.902;25.336;2022-12-18T00:51:28;3.72;;;1.95;;
34296;SDS011;20564;42.902;25.336;2022-12-18T00:53:58;1.10;;;0.68;;
34296;SDS011;20564;42.902;25.336;2022-12-18T00:56:25;8.48;;;2.10;;
34296;SDS011;20564;42.902;25.336;2022-12-18T00:58:53;2.95;;;1.67;;
34296;SDS011;20564;42.902;25.336;2022-12-18T01:01:20;5.43;;;2.97;;
34296;SDS011;20564;42.902;25.336;2022-12-18T01:03:48;6.75;;;1.67;;
34296;SDS011;20564;42.902;25.336;2022-12-18T01:06:16;3.28;;;1.40;;
34296;SDS011;20564;42.902;25.336;2022-12-18T01:08:43;3.78;;;1.80;;
34296;SDS011;20564;42.902;25.336;2022-12-18T01:11:16;4.57;;;1.75;;
34296;SDS011;20564;42.902;25.336;2022-12-18T01:13:44;3.15;;;1.95;;
34296;SDS011;20564;42.902;25.336;2022-12-18T01:16:12;5.43;;;2.50;;
34296;SDS011;20564;42.902;25.336;2022-12-18T01:18:40;6.22;;;1.45;;
34296;SDS011;20564;42.902;25.336;2022-12-18T01:21:08;3.70;;;2.03;;
34296;SDS011;20564;42.902;25.336;2022-12-18T01:23:37;2.83;;;1.45;;
34296;SDS011;20564;42.902;25.336;2022-12-18T01:26:06;8.23;;;2.83;;
34296;SDS011;20564;42.902;25.336;2022-12-18T01:28:35;4.13;;;1.70;;
34296;SDS011;20564;42.902;25.336;2022-12-18T01:33:51;9.20;;;2.28;;
34296;SDS011;20564;42.902;25.336;2022-12-18T01:36:23;10.55;;;2.40;;
34296;SDS011;20564;42.902;25.336;2022-12-18T01:38:52;3.50;;;1.63;;
34296;SDS011;20564;42.902;25.336;2022-12-18T01:41:21;13.43;;;6.15;;
34296;SDS011;20564;42.902;25.336;2022-12-18T01:43:51;8.65;;;4.13;;
34296;SDS011;20564;42.902;25.336;2022-12-18T01:46:24;6.63;;;2.60;;
34296;SDS011;20564;42.902;25.336;2022-12-18T01:48:56;5.03;;;2.45;;
34296;SDS011;20564;42.902;25.336;2022-12-18T01:51:26;3.13;;;1.52;;
34296;SDS011;20564;42.902;25.336;2022-12-18T01:53:56;1.38;;;1.08;;
34296;SDS011;20564;42.902;25.336;2022-12-18T01:59:01;1.63;;;1.00;;
34296;SDS011;20564;42.902;25.336;2022-12-18T02:01:31;2.17;;;0.93;;
34296;SDS011;20564;42.902;25.336;2022-12-18T02:04:22;1.25;;;0.82;;
34296;SDS011;20564;42.902;25.336;2022-12-18T02:06:50;2.72;;;1.48;;
34296;SDS011;20564;42.902;25.336;2022-12-18T02:09:23;1.17;;;0.57;;
34296;SDS011;20564;42.902;25.336;2022-12-18T02:12:12;2.35;;;1.27;;
34296;SDS011;20564;42.902;25.336;2022-12-18T02:15:31;0.90;;;0.65;;
34296;SDS011;20564;42.902;25.336;2022-12-18T02:17:58;0.60;;;0.60;;
34296;SDS011;20564;42.902;25.336;2022-12-18T02:20:40;3.08;;;1.10;;
34296;SDS011;20564;42.902;25.336;2022-12-18T02:26:16;4.50;;;1.45;;
34296;SDS011;20564;42.902;25.336;2022-12-18T02:29:22;2.75;;;1.52;;
34296;SDS011;20564;42.902;25.336;2022-12-18T02:31:57;1.88;;;1.23;;
34296;SDS011;20564;42.902;25.336;2022-12-18T02:34:27;1.88;;;1.08;;
34296;SDS011;20564;42.902;25.336;2022-12-18T02:36:58;3.42;;;1.38;;
34296;SDS011;20564;42.902;25.336;2022-12-18T02:39:28;3.08;;;2.00;;
34296;SDS011;20564;42.902;25.336;2022-12-18T02:41:57;1.73;;;1.10;;
34296;SDS011;20564;42.902;25.336;2022-12-18T02:44:26;2.17;;;1.50;;
34296;SDS011;20564;42.902;25.336;2022-12-18T02:46:53;1.92;;;1.40;;
34296;SDS011;20564;42.902;25.336;2022-12-18T03:02:51;1.27;;;1.02;;
34296;SDS011;20564;42.902;25.336;2022-12-18T03:05:30;3.17;;;1.65;;
34296;SDS011;20564;42.902;25.336;2022-12-18T03:08:03;3.90;;;1.52;;
34296;SDS011;20564;42.902;25.336;2022-12-18T03:10:41;2.88;;;1.67;;
34296;SDS011;20564;42.902;25.336;2022-12-18T03:13:13;2.50;;;1.77;;
34296;SDS011;20564;42.902;25.336;2022-12-18T03:15:49;3.92;;;2.17;;
34296;SDS011;20564;42.902;25.336;2022-12-18T03:18:23;4.30;;;1.85;;
34296;SDS011;20564;42.902;25.336;2022-12-18T03:20:57;3.15;;;1.77;;
34296;SDS011;20564;42.902;25.336;2022-12-18T03:23:31;4.85;;;1.92;;
34296;SDS011;20564;42.902;25.336;2022-12-18T03:26:05;1.63;;;1.05;;
34296;SDS011;20564;42.902;25.336;2022-12-18T03:28:37;2.88;;;1.08;;
34296;SDS011;20564;42.902;25.336;2022-12-18T03:31:09;2.90;;;1.33;;
34296;SDS011;20564;42.902;25.336;2022-12-18T03:36:19;2.97;;;1.35;;
34296;SDS011;20564;42.902;25.336;2022-12-18T03:38:47;3.20;;;1.60;;
34296;SDS011;20564;42.902;25.336;2022-12-18T03:41:27;4.07;;;2.10;;
34296;SDS011;20564;42.902;25.336;2022-12-18T03:44:12;4.32;;;1.85;;
34296;SDS011;20564;42.902;25.336;2022-12-18T03:49:51;4.13;;;1.38;;
34296;SDS011;20564;42.902;25.336;2022-12-18T03:52:28;3.03;;;1.67;;
34296;SDS011;20564;42.902;25.336;2022-12-18T03:55:01;4.50;;;1.95;;
34296;SDS011;20564;42.902;25.336;2022-12-18T03:57:32;3.80;;;1.25;;
34296;SDS011;20564;42.902;25.336;2022-12-18T04:00:02;2.83;;;1.73;;
34296;SDS011;20564;42.902;25.336;2022-12-18T04:02:36;1.38;;;0.98;;
34296;SDS011;20564;42.902;25.336;2022-12-18T04:05:08;1.83;;;0.98;;
34296;SDS011;20564;42.902;25.336;2022-12-18T04:07:37;3.25;;;1.95;;
34296;SDS011;20564;42.902;25.336;2022-12-18T04:10:06;2.97;;;1.58;;
34296;SDS011;20564;42.902;25.336;2022-12-18T04:12:36;2.55;;;1.65;;
34296;SDS011;20564;42.902;25.336;2022-12-18T04:15:04;2.17;;;1.45;;
34296;SDS011;20564;42.902;25.336;2022-12-18T04:19:59;2.88;;;1.27;;
34296;SDS011;20564;42.902;25.336;2022-12-18T04:22:26;2.42;;;1.25;;
34296;SDS011;20564;42.902;25.336;2022-12-18T04:24:53;4.22;;;1.77;;
34296;SDS011;20564;42.902;25.336;2022-12-18T04:27:21;1.65;;;1.35;;
34296;SDS011;20564;42.902;25.336;2022-12-18T04:29:48;3.90;;;1.70;;
34296;SDS011;20564;42.902;25.336;2022-12-18T04:32:18;3.25;;;1.73;;
34296;SDS011;20564;42.902;25.336;2022-12-18T04:34:45;3.65;;;1.77;;
34296;SDS011;20564;42.902;25.336;2022-12-18T04:37:12;2.83;;;1.67;;
34296;SDS011;20564;42.902;25.336;2022-12-18T04:39:39;2.22;;;1.60;;
34296;SDS011;20564;42.902;25.336;2022-12-18T04:42:06;2.38;;;1.67;;
34296;SDS011;20564;42.902;25.336;2022-12-18T04:44:33;3.97;;;2.22;;
34296;SDS011;20564;42.902;25.336;2022-12-18T04:47:00;5.80;;;2.63;;
34296;SDS011;20564;42.902;25.336;2022-12-18T04:49:28;6.00;;;2.10;;
34296;SDS011;20564;42.902;25.336;2022-12-18T04:51:55;5.50;;;2.65;;
34296;SDS011;20564;42.902;25.336;2022-12-18T04:54:22;7.82;;;4.05;;
34296;SDS011;20564;42.902;25.336;2022-12-18T04:56:49;3.15;;;1.60;;
34296;SDS011;20564;42.902;25.336;2022-12-18T04:59:16;5.67;;;2.00;;
34296;SDS011;20564;42.902;25.336;2022-12-18T05:01:43;2.40;;;1.30;;
34296;SDS011;20564;42.902;25.336;2022-12-18T05:04:10;3.63;;;2.42;;
34296;SDS011;20564;42.902;25.336;2022-12-18T05:06:37;6.15;;;2.55;;
34296;SDS011;20564;42.902;25.336;2022-12-18T05:09:05;5.60;;;2.55;;
34296;SDS011;20564;42.902;25.336;2022-12-18T05:11:32;6.50;;;3.22;;
34296;SDS011;20564;42.902;25.336;2022-12-18T05:13:59;5.30;;;2.77;;
34296;SDS011;20564;42.902;25.336;2022-12-18T05:16:26;7.27;;;3.63;;
34296;SDS011;20564;42.902;25.336;2022-12-18T05:18:53;7.43;;;2.83;;
34296;SDS011;20564;42.902;25.336;2022-12-18T05:21:20;6.75;;;3.17;;
34296;SDS011;20564;42.902;25.336;2022-12-18T05:23:48;7.82;;;3.70;;
34296;SDS011;20564;42.902;25.336;2022-12-18T05:26:16;7.03;;;3.00;;
34296;SDS011;20564;42.902;25.336;2022-12-18T05:28:44;9.02;;;3.78;;
34296;SDS011;20564;42.902;25.336;2022-12-18T05:31:11;8.23;;;3.90;;
34296;SDS011;20564;42.902;25.336;2022-12-18T05:33:38;7.68;;;4.05;;
34296;SDS011;20564;42.902;25.336;2022-12-18T05:36:07;8.15;;;4.38;;
34296;SDS011;20564;42.902;25.336;2022-12-18T05:38:36;7.97;;;4.50;;
34296;SDS011;20564;42.902;25.336;2022-12-18T05:41:04;8.35;;;4.10;;
34296;SDS011;20564;42.902;25.336;2022-12-18T05:43:33;7.85;;;3.47;;
34296;SDS011;20564;42.902;25.336;2022-12-18T05:46:03;5.15;;;2.83;;
34296;SDS011;20564;42.902;25.336;2022-12-18T05:48:32;6.63;;;3.85;;
34296;SDS011;20564;42.902;25.336;2022-12-18T05:51:03;7.80;;;3.47;;
34296;SDS011;20564;42.902;25.336;2022-12-18T05:53:33;4.63;;;2.80;;
34296;SDS011;20564;42.902;25.336;2022-12-18T05:56:02;8.35;;;4.10;;
34296;SDS011;20564;42.902;25.336;2022-12-18T05:58:30;5.88;;;3.60;;
34296;SDS011;20564;42.902;25.336;2022-12-18T06:03:32;7.57;;;3.72;;
34296;SDS011;20564;42.902;25.336;2022-12-18T06:06:00;5.22;;;2.67;;
34296;SDS011;20564;42.902;25.336;2022-12-18T06:08:27;6.57;;;3.03;;
34296;SDS011;20564;42.902;25.336;2022-12-18T06:10:54;7.93;;;3.50;;
34296;SDS011;20564;42.902;25.336;2022-12-18T06:13:22;7.97;;;3.15;;
34296;SDS011;20564;42.902;25.336;2022-12-18T06:15:49;4.07;;;2.50;;
34296;SDS011;20564;42.902;25.336;2022-12-18T06:18:16;1.85;;;1.35;;
34296;SDS011;20564;42.902;25.336;2022-12-18T06:20:43;4.73;;;3.33;;
34296;SDS011;20564;42.902;25.336;2022-12-18T06:23:10;5.57;;;3.10;;
34296;SDS011;20564;42.902;25.336;2022-12-18T06:25:39;4.57;;;3.25;;
34296;SDS011;20564;42.902;25.336;2022-12-18T06:28:06;3.28;;;2.05;;
34296;SDS011;20564;42.902;25.336;2022-12-18T06:30:33;5.00;;;2.72;;
34296;SDS011;20564;42.902;25.336;2022-12-18T06:33:00;6.45;;;3.55;;
34296;SDS011;20564;42.902;25.336;2022-12-18T06:35:28;7.30;;;2.53;;
34296;SDS011;20564;42.902;25.336;2022-12-18T06:37:55;5.60;;;2.55;;
34296;SDS011;20564;42.902;25.336;2022-12-18T06:40:22;7.07;;;3.13;;
34296;SDS011;20564;42.902;25.336;2022-12-18T06:42:50;5.22;;;2.60;;
34296;SDS011;20564;42.902;25.336;2022-12-18T06:45:17;5.40;;;2.65;;
34296;SDS011;20564;42.902;25.336;2022-12-18T06:47:44;4.85;;;2.53;;
34296;SDS011;20564;42.902;25.336;2022-12-18T06:50:11;4.60;;;2.43;;
34296;SDS011;20564;42.902;25.336;2022-12-18T06:52:39;9.93;;;3.50;;
34296;SDS011;20564;42.902;25.336;2022-12-18T06:55:07;5.68;;;2.60;;
34296;SDS011;20564;42.902;25.336;2022-12-18T06:57:37;3.13;;;2.05;;
34296;SDS011;20564;42.902;25.336;2022-12-18T07:00:05;5.18;;;1.88;;
34296;SDS011;20564;42.902;25.336;2022-12-18T07:02:33;7.30;;;3.13;;
34296;SDS011;20564;42.902;25.336;2022-12-18T07:05:00;21.08;;;2.60;;
34296;SDS011;20564;42.902;25.336;2022-12-18T07:07:35;3.88;;;2.47;;
34296;SDS011;20564;42.902;25.336;2022-12-18T07:10:03;3.50;;;2.05;;
34296;SDS011;20564;42.902;25.336;2022-12-18T07:12:30;5.57;;;2.20;;
34296;SDS011;20564;42.902;25.336;2022-12-18T07:14:58;8.43;;;3.78;;
34296;SDS011;20564;42.902;25.336;2022-12-18T07:17:25;4.63;;;2.13;;
34296;SDS011;20564;42.902;25.336;2022-12-18T07:19:52;7.40;;;3.10;;
34296;SDS011;20564;42.902;25.336;2022-12-18T07:22:19;6.20;;;3.42;;
34296;SDS011;20564;42.902;25.336;2022-12-18T07:24:46;5.43;;;3.45;;
34296;SDS011;20564;42.902;25.336;2022-12-18T07:27:16;6.70;;;4.18;;
34296;SDS011;20564;42.902;25.336;2022-12-18T07:29:43;5.53;;;2.92;;
34296;SDS011;20564;42.902;25.336;2022-12-18T07:32:10;2.67;;;1.85;;
34296;SDS011;20564;42.902;25.336;2022-12-18T07:34:38;3.38;;;2.05;;
34296;SDS011;20564;42.902;25.336;2022-12-18T07:37:05;6.63;;;3.33;;
34296;SDS011;20564;42.902;25.336;2022-12-18T07:39:33;4.57;;;2.03;;
34296;SDS011;20564;42.902;25.336;2022-12-18T07:42:01;5.63;;;2.85;;
34296;SDS011;20564;42.902;25.336;2022-12-18T07:44:51;10.40;;;3.90;;
34296;SDS011;20564;42.902;25.336;2022-12-18T07:47:19;4.57;;;2.67;;
34296;SDS011;20564;42.902;25.336;2022-12-18T07:49:45;8.20;;;2.77;;
34296;SDS011;20564;42.902;25.336;2022-12-18T07:52:13;7.93;;;2.97;;
34296;SDS011;20564;42.902;25.336;2022-12-18T07:54:40;8.40;;;3.13;;
34296;SDS011;20564;42.902;25.336;2022-12-18T07:57:07;5.88;;;2.33;;
34296;SDS011;20564;42.902;25.336;2022-12-18T08:02:22;5.30;;;2.60;;
34296;SDS011;20564;42.902;25.336;2022-12-18T08:04:49;5.28;;;2.20;;
34296;SDS011;20564;42.902;25.336;2022-12-18T08:07:18;4.07;;;2.15;;
34296;SDS011;20564;42.902;25.336;2022-12-18T08:09:45;3.67;;;2.25;;
34296;SDS011;20564;42.902;25.336;2022-12-18T08:12:12;5.40;;;2.73;;
34296;SDS011;20564;42.902;25.336;2022-12-18T08:14:39;4.25;;;2.72;;
34296;SDS011;20564;42.902;25.336;2022-12-18T08:17:06;5.38;;;3.45;;
34296;SDS011;20564;42.902;25.336;2022-12-18T08:19:33;8.55;;;3.67;;
34296;SDS011;20564;42.902;25.336;2022-12-18T08:22:00;5.07;;;1.77;;
34296;SDS011;20564;42.902;25.336;2022-12-18T08:24:27;5.03;;;2.10;;
34296;SDS011;20564;42.902;25.336;2022-12-18T08:26:55;2.93;;;1.50;;
34296;SDS011;20564;42.902;25.336;2022-12-18T08:29:43;5.15;;;1.17;;
34296;SDS011;20564;42.902;25.336;2022-12-18T08:32:10;3.10;;;1.85;;
34296;SDS011;20564;42.902;25.336;2022-12-18T08:34:37;3.90;;;2.13;;
34296;SDS011;20564;42.902;25.336;2022-12-18T08:37:05;4.15;;;2.05;;
34296;SDS011;20564;42.902;25.336;2022-12-18T08:39:32;2.20;;;1.23;;
34296;SDS011;20564;42.902;25.336;2022-12-18T08:42:01;2.13;;;1.48;;
34296;SDS011;20564;42.902;25.336;2022-12-18T08:44:46;3.50;;;1.63;;
34296;SDS011;20564;42.902;25.336;2022-12-18T08:47:13;5.07;;;2.50;;
34296;SDS011;20564;42.902;25.336;2022-12-18T08:49:41;3.00;;;1.50;;
34296;SDS011;20564;42.902;25.336;2022-12-18T08:52:08;2.75;;;1.45;;
34296;SDS011;20564;42.902;25.336;2022-12-18T08:54:36;4.13;;;2.28;;
34296;SDS011;20564;42.902;25.336;2022-12-18T08:57:03;5.38;;;2.83;;
34296;SDS011;20564;42.902;25.336;2022-12-18T08:59:30;2.03;;;1.10;;
34296;SDS011;20564;42.902;25.336;2022-12-18T09:01:57;4.32;;;2.80;;
34296;SDS011;20564;42.902;25.336;2022-12-18T09:04:24;6.55;;;3.72;;
34296;SDS011;20564;42.902;25.336;2022-12-18T09:06:51;5.70;;;2.22;;
34296;SDS011;20564;42.902;25.336;2022-12-18T09:09:18;5.10;;;1.90;;
34296;SDS011;20564;42.902;25.336;2022-12-18T09:11:49;7.85;;;3.72;;
34296;SDS011;20564;42.902;25.336;2022-12-18T09:14:16;3.72;;;2.33;;
34296;SDS011;20564;42.902;25.336;2022-12-18T09:16:44;4.90;;;2.13;;
34296;SDS011;20564;42.902;25.336;2022-12-18T09:19:11;10.27;;;1.42;;
34296;SDS011;20564;42.902;25.336;2022-12-18T09:21:38;6.47;;;2.05;;
34296;SDS011;20564;42.902;25.336;2022-12-18T09:24:13;2.03;;;1.13;;
34296;SDS011;20564;42.902;25.336;2022-12-18T09:26:40;3.42;;;1.55;;
34296;SDS011;20564;42.902;25.336;2022-12-18T09:29:13;3.63;;;1.85;;
34296;SDS011;20564;42.902;25.336;2022-12-18T09:31:44;1.85;;;0.80;;
34296;SDS011;20564;42.902;25.336;2022-12-18T09:34:11;4.50;;;1.90;;
34296;SDS011;20564;42.902;25.336;2022-12-18T09:36:39;1.27;;;0.95;;
34296;SDS011;20564;42.902;25.336;2022-12-18T09:39:06;7.73;;;2.63;;
34296;SDS011;20564;42.902;25.336;2022-12-18T09:41:39;3.38;;;2.05;;
34296;SDS011;20564;42.902;25.336;2022-12-18T09:46:45;5.20;;;1.38;;
34296;SDS011;20564;42.902;25.336;2022-12-18T09:49:35;1.38;;;1.23;;
34296;SDS011;20564;42.902;25.336;2022-12-18T09:52:14;6.00;;;2.15;;
34296;SDS011;20564;42.902;25.336;2022-12-18T09:55:44;3.17;;;1.50;;
34296;SDS011;20564;42.902;25.336;2022-12-18T10:00:38;2.92;;;1.55;;
34296;SDS011;20564;42.902;25.336;2022-12-18T10:03:09;7.03;;;3.38;;
34296;SDS011;20564;42.902;25.336;2022-12-18T10:05:54;8.57;;;3.45;;
34296;SDS011;20564;42.902;25.336;2022-12-18T10:08:43;8.00;;;4.72;;
34296;SDS011;20564;42.902;25.336;2022-12-18T10:11:34;5.85;;;2.65;;
34296;SDS011;20564;42.902;25.336;2022-12-18T10:14:34;14.17;;;6.57;;
34296;SDS011;20564;42.902;25.336;2022-12-18T10:20:05;4.97;;;1.98;;
34296;SDS011;20564;42.902;25.336;2022-12-18T10:22:49;5.20;;;2.08;;
34296;SDS011;20564;42.902;25.336;2022-12-18T10:28:19;1.65;;;1.10;;
34296;SDS011;20564;42.902;25.336;2022-12-18T10:33:17;1.65;;;1.25;;
34296;SDS011;20564;42.902;25.336;2022-12-18T10:35:47;1.30;;;0.77;;
34296;SDS011;20564;42.902;25.336;2022-12-18T10:40:55;4.13;;;1.58;;
34296;SDS011;20564;42.902;25.336;2022-12-18T10:43:32;4.45;;;1.60;;
34296;SDS011;20564;42.902;25.336;2022-12-18T10:48:47;1.95;;;1.15;;
34296;SDS011;20564;42.902;25.336;2022-12-18T10:51:34;7.88;;;1.85;;
34296;SDS011;20564;42.902;25.336;2022-12-18T10:54:05;3.88;;;1.77;;
34296;SDS011;20564;42.902;25.336;2022-12-18T10:56:48;2.13;;;1.40;;
34296;SDS011;20564;42.902;25.336;2022-12-18T10:59:16;3.50;;;1.05;;
34296;SDS011;20564;42.902;25.336;2022-12-18T11:01:49;2.70;;;1.48;;
34296;SDS011;20564;42.902;25.336;2022-12-18T11:04:24;1.55;;;0.80;;
34296;SDS011;20564;42.902;25.336;2022-12-18T11:06:58;0.65;;;0.63;;
34296;SDS011;20564;42.902;25.336;2022-12-18T11:09:28;1.38;;;0.60;;
34296;SDS011;20564;42.902;25.336;2022-12-18T11:14:43;1.48;;;1.10;;
34296;SDS011;20564;42.902;25.336;2022-12-18T11:19:58;1.55;;;0.82;;
34296;SDS011;20564;42.902;25.336;2022-12-18T11:22:28;2.70;;;0.75;;
34296;SDS011;20564;42.902;25.336;2022-12-18T11:25:07;2.85;;;1.08;;
34296;SDS011;20564;42.902;25.336;2022-12-18T11:28:03;1.48;;;0.80;;
34296;SDS011;20564;42.902;25.336;2022-12-18T11:30:33;2.63;;;1.40;;
34296;SDS011;20564;42.902;25.336;2022-12-18T11:33:05;2.35;;;1.02;;
34296;SDS011;20564;42.902;25.336;2022-12-18T11:35:51;5.25;;;1.05;;
34296;SDS011;20564;42.902;25.336;2022-12-18T11:40:58;3.08;;;0.95;;
34296;SDS011;20564;42.902;25.336;2022-12-18T11:43:55;1.27;;;0.60;;
34296;SDS011;20564;42.902;25.336;2022-12-18T11:46:36;2.08;;;1.08;;
34296;SDS011;20564;42.902;25.336;2022-12-18T11:49:12;2.63;;;1.40;;
34296;SDS011;20564;42.902;25.336;2022-12-18T11:51:55;2.60;;;1.27;;
34296;SDS011;20564;42.902;25.336;2022-12-18T11:54:30;3.00;;;1.38;;
34296;SDS011;20564;42.902;25.336;2022-12-18T12:02:39;2.10;;;1.30;;
34296;SDS011;20564;42.902;25.336;2022-12-18T12:08:40;1.98;;;1.38;;
34296;SDS011;20564;42.902;25.336;2022-12-18T12:11:33;3.35;;;1.38;;
34296;SDS011;20564;42.902;25.336;2022-12-18T12:19:51;1.95;;;1.15;;
34296;SDS011;20564;42.902;25.336;2022-12-18T12:38:50;3.13;;;1.50;;
34296;SDS011;20564;42.902;25.336;2022-12-18T12:41:23;2.33;;;1.38;;
34296;SDS011;20564;42.902;25.336;2022-12-18T12:44:22;3.47;;;1.60;;
34296;SDS011;20564;42.902;25.336;2022-12-18T12:47:17;3.33;;;1.13;;
34296;SDS011;20564;42.902;25.336;2022-12-18T12:49:52;2.90;;;1.45;;
34296;SDS011;20564;42.902;25.336;2022-12-18T12:52:31;1.63;;;1.00;;
34296;SDS011;20564;42.902;25.336;2022-12-18T12:55:03;2.40;;;1.20;;
34296;SDS011;20564;42.902;25.336;2022-12-18T12:57:41;2.10;;;0.82;;
34296;SDS011;20564;42.902;25.336;2022-12-18T13:00:18;2.72;;;1.08;;
34296;SDS011;20564;42.902;25.336;2022-12-18T13:03:02;5.13;;;2.20;;
34296;SDS011;20564;42.902;25.336;2022-12-18T13:05:49;4.25;;;2.33;;
34296;SDS011;20564;42.902;25.336;2022-12-18T13:08:22;5.13;;;2.30;;
34296;SDS011;20564;42.902;25.336;2022-12-18T13:10:55;1.98;;;1.45;;
34296;SDS011;20564;42.902;25.336;2022-12-18T13:14:03;4.45;;;1.73;;
34296;SDS011;20564;42.902;25.336;2022-12-18T13:16:30;4.22;;;0.90;;
34296;SDS011;20564;42.902;25.336;2022-12-18T13:18:58;2.95;;;1.35;;
34296;SDS011;20564;42.902;25.336;2022-12-18T13:23:54;1.98;;;1.17;;
34296;SDS011;20564;42.902;25.336;2022-12-18T13:28:55;3.95;;;1.75;;
34296;SDS011;20564;42.902;25.336;2022-12-18T13:36:54;4.85;;;1.67;;
34296;SDS011;20564;42.902;25.336;2022-12-18T13:39:33;6.22;;;2.20;;
34296;SDS011;20564;42.902;25.336;2022-12-18T13:44:33;10.60;;;2.50;;
34296;SDS011;20564;42.902;25.336;2022-12-18T13:47:26;8.48;;;3.25;;
34296;SDS011;20564;42.902;25.336;2022-12-18T13:49:58;4.90;;;1.70;;
34296;SDS011;20564;42.902;25.336;2022-12-18T13:52:26;3.70;;;1.67;;
34296;SDS011;20564;42.902;25.336;2022-12-18T13:54:56;5.00;;;1.85;;
34296;SDS011;20564;42.902;25.336;2022-12-18T13:57:26;1.73;;;0.80;;
34296;SDS011;20564;42.902;25.336;2022-12-18T14:03:20;2.72;;;1.17;;
34296;SDS011;20564;42.902;25.336;2022-12-18T14:06:03;2.38;;;1.50;;
34296;SDS011;20564;42.902;25.336;2022-12-18T14:08:36;2.42;;;1.17;;
34296;SDS011;20564;42.902;25.336;2022-12-18T14:11:07;1.35;;;1.20;;
34296;SDS011;20564;42.902;25.336;2022-12-18T14:13:51;3.20;;;1.20;;
34296;SDS011;20564;42.902;25.336;2022-12-18T14:16:19;2.28;;;1.50;;
34296;SDS011;20564;42.902;25.336;2022-12-18T14:18:54;3.17;;;1.67;;
34296;SDS011;20564;42.902;25.336;2022-12-18T14:21:40;2.67;;;1.38;;
34296;SDS011;20564;42.902;25.336;2022-12-18T14:24:21;3.85;;;1.42;;
34296;SDS011;20564;42.902;25.336;2022-12-18T14:26:49;1.30;;;0.77;;
34296;SDS011;20564;42.902;25.336;2022-12-18T14:29:18;2.67;;;1.52;;
34296;SDS011;20564;42.902;25.336;2022-12-18T14:32:07;2.50;;;0.40;;
34296;SDS011;20564;42.902;25.336;2022-12-18T14:34:43;1.73;;;1.20;;
34296;SDS011;20564;42.902;25.336;2022-12-18T14:37:12;2.35;;;0.80;;
34296;SDS011;20564;42.902;25.336;2022-12-18T14:39:51;1.65;;;1.33;;
34296;SDS011;20564;42.902;25.336;2022-12-18T14:42:21;1.02;;;0.82;;
34296;SDS011;20564;42.902;25.336;2022-12-18T14:44:49;1.02;;;0.57;;
34296;SDS011;20564;42.902;25.336;2022-12-18T14:47:36;2.20;;;0.82;;
34296;SDS011;20564;42.902;25.336;2022-12-18T14:50:04;0.65;;;0.57;;
34296;SDS011;20564;42.902;25.336;2022-12-18T14:52:40;2.78;;;1.48;;
34296;SDS011;20564;42.902;25.336;2022-12-18T14:55:14;0.82;;;0.50;;
34296;SDS011;20564;42.902;25.336;2022-12-18T14:57:43;1.52;;;0.95;;
34296;SDS011;20564;42.902;25.336;2022-12-18T15:00:18;1.30;;;0.80;;
34296;SDS011;20564;42.902;25.336;2022-12-18T15:02:48;1.70;;;0.65;;
34296;SDS011;20564;42.902;25.336;2022-12-18T15:05:25;2.50;;;1.00;;
34296;SDS011;20564;42.902;25.336;2022-12-18T15:07:54;4.28;;;2.20;;
34296;SDS011;20564;42.902;25.336;2022-12-18T15:10:24;1.52;;;0.70;;
34296;SDS011;20564;42.902;25.336;2022-12-18T15:23:17;2.65;;;1.40;;
34296;SDS011;20564;42.902;25.336;2022-12-18T15:25:55;1.75;;;1.15;;
34296;SDS011;20564;42.902;25.336;2022-12-18T15:28:39;4.25;;;1.70;;
34296;SDS011;20564;42.902;25.336;2022-12-18T15:36:19;1.30;;;0.47;;
34296;SDS011;20564;42.902;25.336;2022-12-18T15:38:53;1.48;;;1.08;;
34296;SDS011;20564;42.902;25.336;2022-12-18T15:41:32;1.60;;;0.95;;
34296;SDS011;20564;42.902;25.336;2022-12-18T15:44:01;2.33;;;0.95;;
34296;SDS011;20564;42.902;25.336;2022-12-18T15:48:58;7.03;;;2.60;;
34296;SDS011;20564;42.902;25.336;2022-12-18T15:54:00;1.67;;;0.45;;
34296;SDS011;20564;42.902;25.336;2022-12-18T15:56:30;1.30;;;0.80;;
34296;SDS011;20564;42.902;25.336;2022-12-18T15:59:17;2.40;;;1.35;;
34296;SDS011;20564;42.902;25.336;2022-12-18T16:01:47;1.88;;;1.10;;
34296;SDS011;20564;42.902;25.336;2022-12-18T16:04:17;3.80;;;1.95;;
34296;SDS011;20564;42.902;25.336;2022-12-18T16:06:47;1.23;;;1.13;;
34296;SDS011;20564;42.902;25.336;2022-12-18T16:09:35;1.85;;;0.98;;
34296;SDS011;20564;42.902;25.336;2022-12-18T16:14:30;1.77;;;1.05;;
34296;SDS011;20564;42.902;25.336;2022-12-18T16:17:02;1.63;;;1.05;;
34296;SDS011;20564;42.902;25.336;2022-12-18T16:19:31;3.70;;;1.35;;
34296;SDS011;20564;42.902;25.336;2022-12-18T16:21:59;1.60;;;1.10;;
34296;SDS011;20564;42.902;25.336;2022-12-18T16:24:29;1.80;;;1.03;;
34296;SDS011;20564;42.902;25.336;2022-12-18T16:26:58;2.30;;;1.10;;
34296;SDS011;20564;42.902;25.336;2022-12-18T16:29:27;1.63;;;1.15;;
34296;SDS011;20564;42.902;25.336;2022-12-18T16:31:55;3.88;;;1.60;;
34296;SDS011;20564;42.902;25.336;2022-12-18T16:34:25;3.40;;;1.33;;
34296;SDS011;20564;42.902;25.336;2022-12-18T16:36:56;3.42;;;2.00;;
34296;SDS011;20564;42.902;25.336;2022-12-18T16:39:31;1.60;;;1.25;;
34296;SDS011;20564;42.902;25.336;2022-12-18T16:42:00;2.97;;;1.40;;
34296;SDS011;20564;42.902;25.336;2022-12-18T16:44:31;1.52;;;0.70;;
34296;SDS011;20564;42.902;25.336;2022-12-18T16:46:59;4.57;;;2.05;;
34296;SDS011;20564;42.902;25.336;2022-12-18T16:49:28;5.28;;;2.13;;
34296;SDS011;20564;42.902;25.336;2022-12-18T16:54:23;3.80;;;1.50;;
34296;SDS011;20564;42.902;25.336;2022-12-18T16:56:51;3.50;;;1.88;;
34296;SDS011;20564;42.902;25.336;2022-12-18T16:59:18;3.30;;;1.77;;
34296;SDS011;20564;42.902;25.336;2022-12-18T17:01:45;4.95;;;1.52;;
34296;SDS011;20564;42.902;25.336;2022-12-18T17:04:13;6.13;;;2.00;;
34296;SDS011;20564;42.902;25.336;2022-12-18T17:09:13;4.15;;;1.17;;
34296;SDS011;20564;42.902;25.336;2022-12-18T17:11:42;2.67;;;1.75;;
34296;SDS011;20564;42.902;25.336;2022-12-18T17:14:12;4.22;;;1.75;;
34296;SDS011;20564;42.902;25.336;2022-12-18T17:16:41;3.10;;;1.75;;
34296;SDS011;20564;42.902;25.336;2022-12-18T17:19:08;4.40;;;1.67;;